sensor_id;sensor_type;location;lat;lon;timestamp;pressure;altitude;pressure_sealevel;temperature;humidity
64095;BME280;50353;51.420;5.682;2023-04-27T00:01:27;101766.16;;;6.13;73.91
64095;BME280;50353;51.420;5.682;2023-04-27T00:03:53;101773.28;;;6.07;75.01
64095;BME280;50353;51.420;5.682;2023-04-27T00:06:19;101776.31;;;6.25;74.93
64095;BME280;50353;51.420;5.682;2023-04-27T00:08:44;101771.81;;;6.30;73.32
64095;BME280;50353;51.420;5.682;2023-04-27T00:11:09;101765.16;;;5.82;75.40
64095;BME280;50353;51.420;5.682;2023-04-27T00:13:35;101770.09;;;5.93;74.43
64095;BME280;50353;51.420;5.682;2023-04-27T00:16:00;101763.56;;;5.75;75.55
64095;BME280;50353;51.420;5.682;2023-04-27T00:18:27;101761.00;;;6.08;74.60
64095;BME280;50353;51.420;5.682;2023-04-27T00:20:52;101758.69;;;5.96;74.85
64095;BME280;50353;51.420;5.682;2023-04-27T00:23:18;101756.94;;;5.96;74.48
64095;BME280;50353;51.420;5.682;2023-04-27T00:25:43;101765.59;;;6.01;73.27
64095;BME280;50353;51.420;5.682;2023-04-27T00:28:08;101760.00;;;6.14;73.24
64095;BME280;50353;51.420;5.682;2023-04-27T00:30:34;101760.34;;;6.01;73.51
64095;BME280;50353;51.420;5.682;2023-04-27T00:33:00;101767.25;;;6.04;73.41
64095;BME280;50353;51.420;5.682;2023-04-27T00:35:25;101768.72;;;5.80;73.77
64095;BME280;50353;51.420;5.682;2023-04-27T00:37:52;101770.38;;;5.84;74.07
64095;BME280;50353;51.420;5.682;2023-04-27T00:40:19;101769.16;;;5.61;71.89
64095;BME280;50353;51.420;5.682;2023-04-27T00:42:45;101769.22;;;5.94;72.62
64095;BME280;50353;51.420;5.682;2023-04-27T00:45:10;101775.63;;;5.84;73.89
64095;BME280;50353;51.420;5.682;2023-04-27T00:47:37;101769.03;;;5.67;74.13
64095;BME280;50353;51.420;5.682;2023-04-27T00:50:02;101768.25;;;5.64;74.52
64095;BME280;50353;51.420;5.682;2023-04-27T00:52:28;101764.44;;;5.39;75.34
64095;BME280;50353;51.420;5.682;2023-04-27T00:54:56;101760.75;;;5.47;76.31
64095;BME280;50353;51.420;5.682;2023-04-27T00:57:21;101764.09;;;5.53;75.77
64095;BME280;50353;51.420;5.682;2023-04-27T00:59:47;101771.13;;;5.53;75.54
64095;BME280;50353;51.420;5.682;2023-04-27T01:02:13;101770.28;;;5.52;75.44
64095;BME280;50353;51.420;5.682;2023-04-27T01:04:38;101766.69;;;5.56;75.28
64095;BME280;50353;51.420;5.682;2023-04-27T01:07:04;101771.84;;;5.59;74.19
64095;BME280;50353;51.420;5.682;2023-04-27T01:09:30;101770.72;;;5.32;75.85
64095;BME280;50353;51.420;5.682;2023-04-27T01:11:55;101775.09;;;5.33;75.66
64095;BME280;50353;51.420;5.682;2023-04-27T01:14:22;101776.50;;;5.47;75.02
64095;BME280;50353;51.420;5.682;2023-04-27T01:16:47;101775.34;;;5.58;74.84
64095;BME280;50353;51.420;5.682;2023-04-27T01:19:13;101768.47;;;5.54;73.06
64095;BME280;50353;51.420;5.682;2023-04-27T01:21:38;101766.50;;;5.63;73.09
64095;BME280;50353;51.420;5.682;2023-04-27T01:24:05;101771.19;;;5.50;73.09
64095;BME280;50353;51.420;5.682;2023-04-27T01:26:31;101774.59;;;5.55;73.27
64095;BME280;50353;51.420;5.682;2023-04-27T01:28:57;101770.41;;;5.46;72.79
64095;BME280;50353;51.420;5.682;2023-04-27T01:31:22;101778.84;;;5.59;72.93
64095;BME280;50353;51.420;5.682;2023-04-27T01:33:48;101779.44;;;5.70;73.05
64095;BME280;50353;51.420;5.682;2023-04-27T01:36:13;101775.22;;;5.65;72.23
64095;BME280;50353;51.420;5.682;2023-04-27T01:38:38;101772.50;;;5.30;74.36
64095;BME280;50353;51.420;5.682;2023-04-27T01:41:04;101769.44;;;5.50;74.71
64095;BME280;50353;51.420;5.682;2023-04-27T01:43:30;101765.03;;;5.52;75.45
64095;BME280;50353;51.420;5.682;2023-04-27T01:46:04;101758.03;;;5.14;76.44
64095;BME280;50353;51.420;5.682;2023-04-27T01:48:30;101764.75;;;5.25;76.78
64095;BME280;50353;51.420;5.682;2023-04-27T01:50:55;101762.75;;;5.37;76.94
64095;BME280;50353;51.420;5.682;2023-04-27T01:53:20;101757.53;;;5.35;76.61
64095;BME280;50353;51.420;5.682;2023-04-27T01:55:45;101756.63;;;5.38;76.33
64095;BME280;50353;51.420;5.682;2023-04-27T01:58:11;101762.34;;;5.54;75.35
64095;BME280;50353;51.420;5.682;2023-04-27T02:00:36;101757.53;;;5.35;75.65
64095;BME280;50353;51.420;5.682;2023-04-27T02:03:01;101760.56;;;5.18;76.35
64095;BME280;50353;51.420;5.682;2023-04-27T02:05:27;101756.38;;;5.10;76.91
64095;BME280;50353;51.420;5.682;2023-04-27T02:07:52;101754.97;;;4.95;76.92
64095;BME280;50353;51.420;5.682;2023-04-27T02:10:18;101758.38;;;4.98;77.48
64095;BME280;50353;51.420;5.682;2023-04-27T02:12:43;101756.00;;;4.87;78.68
64095;BME280;50353;51.420;5.682;2023-04-27T02:15:08;101760.50;;;4.81;79.19
64095;BME280;50353;51.420;5.682;2023-04-27T02:17:34;101758.31;;;4.59;79.76
64095;BME280;50353;51.420;5.682;2023-04-27T02:19:59;101762.44;;;4.72;79.65
64095;BME280;50353;51.420;5.682;2023-04-27T02:22:25;101759.44;;;4.91;78.79
64095;BME280;50353;51.420;5.682;2023-04-27T02:24:50;101758.06;;;4.71;77.75
64095;BME280;50353;51.420;5.682;2023-04-27T02:27:16;101753.47;;;5.22;77.07
64095;BME280;50353;51.420;5.682;2023-04-27T02:29:41;101757.50;;;4.99;77.88
64095;BME280;50353;51.420;5.682;2023-04-27T02:32:07;101755.59;;;4.65;78.77
64095;BME280;50353;51.420;5.682;2023-04-27T02:34:32;101744.00;;;4.33;79.83
64095;BME280;50353;51.420;5.682;2023-04-27T02:36:57;101740.06;;;4.56;79.66
64095;BME280;50353;51.420;5.682;2023-04-27T02:39:23;101734.50;;;4.71;78.95
64095;BME280;50353;51.420;5.682;2023-04-27T02:41:48;101738.44;;;4.93;77.81
64095;BME280;50353;51.420;5.682;2023-04-27T02:44:13;101736.03;;;4.82;77.10
64095;BME280;50353;51.420;5.682;2023-04-27T02:46:39;101731.00;;;5.12;77.12
64095;BME280;50353;51.420;5.682;2023-04-27T02:49:04;101733.97;;;4.96;76.20
64095;BME280;50353;51.420;5.682;2023-04-27T02:51:29;101734.97;;;4.90;76.88
64095;BME280;50353;51.420;5.682;2023-04-27T02:53:55;101738.03;;;4.70;76.72
64095;BME280;50353;51.420;5.682;2023-04-27T02:56:20;101737.69;;;4.86;76.73
64095;BME280;50353;51.420;5.682;2023-04-27T02:58:45;101736.72;;;4.90;75.09
64095;BME280;50353;51.420;5.682;2023-04-27T03:01:12;101738.28;;;4.58;75.61
64095;BME280;50353;51.420;5.682;2023-04-27T03:03:37;101747.75;;;4.65;76.43
64095;BME280;50353;51.420;5.682;2023-04-27T03:06:02;101743.47;;;4.61;77.89
64095;BME280;50353;51.420;5.682;2023-04-27T03:08:28;101743.16;;;4.33;78.80
64095;BME280;50353;51.420;5.682;2023-04-27T03:10:53;101737.44;;;4.56;77.54
64095;BME280;50353;51.420;5.682;2023-04-27T03:13:18;101741.25;;;4.41;76.82
64095;BME280;50353;51.420;5.682;2023-04-27T03:15:44;101737.75;;;4.42;78.09
64095;BME280;50353;51.420;5.682;2023-04-27T03:18:09;101737.50;;;4.09;78.63
64095;BME280;50353;51.420;5.682;2023-04-27T03:20:35;101735.09;;;4.44;77.75
64095;BME280;50353;51.420;5.682;2023-04-27T03:23:00;101742.53;;;4.64;77.57
64095;BME280;50353;51.420;5.682;2023-04-27T03:25:26;101735.34;;;4.73;77.30
64095;BME280;50353;51.420;5.682;2023-04-27T03:27:51;101738.28;;;4.58;77.05
64095;BME280;50353;51.420;5.682;2023-04-27T03:30:16;101741.72;;;4.60;76.92
64095;BME280;50353;51.420;5.682;2023-04-27T03:32:42;101740.09;;;4.54;76.92
64095;BME280;50353;51.420;5.682;2023-04-27T03:35:07;101751.34;;;4.60;76.32
64095;BME280;50353;51.420;5.682;2023-04-27T03:37:33;101746.13;;;4.60;76.71
64095;BME280;50353;51.420;5.682;2023-04-27T03:39:59;101747.06;;;4.55;75.95
64095;BME280;50353;51.420;5.682;2023-04-27T03:42:24;101749.97;;;4.40;77.02
64095;BME280;50353;51.420;5.682;2023-04-27T03:44:50;101752.78;;;4.32;77.09
64095;BME280;50353;51.420;5.682;2023-04-27T03:47:15;101755.03;;;4.49;76.74
64095;BME280;50353;51.420;5.682;2023-04-27T03:49:41;101758.16;;;4.68;75.21
64095;BME280;50353;51.420;5.682;2023-04-27T03:52:06;101753.97;;;4.58;75.77
64095;BME280;50353;51.420;5.682;2023-04-27T03:54:31;101758.59;;;4.00;78.50
64095;BME280;50353;51.420;5.682;2023-04-27T03:56:57;101757.06;;;4.35;78.55
64095;BME280;50353;51.420;5.682;2023-04-27T03:59:22;101753.59;;;4.34;78.67
64095;BME280;50353;51.420;5.682;2023-04-27T04:01:47;101749.94;;;4.42;77.15
64095;BME280;50353;51.420;5.682;2023-04-27T04:04:13;101755.06;;;4.02;79.04
64095;BME280;50353;51.420;5.682;2023-04-27T04:06:38;101755.22;;;4.40;77.21
64095;BME280;50353;51.420;5.682;2023-04-27T04:09:03;101759.22;;;4.13;78.28
64095;BME280;50353;51.420;5.682;2023-04-27T04:11:28;101759.00;;;4.25;78.55
64095;BME280;50353;51.420;5.682;2023-04-27T04:13:54;101751.53;;;4.50;78.31
64095;BME280;50353;51.420;5.682;2023-04-27T04:16:19;101756.50;;;4.19;77.42
64095;BME280;50353;51.420;5.682;2023-04-27T04:18:45;101758.25;;;4.20;75.92
64095;BME280;50353;51.420;5.682;2023-04-27T04:21:10;101758.25;;;4.20;76.38
64095;BME280;50353;51.420;5.682;2023-04-27T04:23:36;101761.19;;;4.01;75.95
64095;BME280;50353;51.420;5.682;2023-04-27T04:26:02;101772.84;;;3.83;78.03
64095;BME280;50353;51.420;5.682;2023-04-27T04:28:27;101770.56;;;4.12;78.27
64095;BME280;50353;51.420;5.682;2023-04-27T04:30:53;101767.25;;;4.02;77.31
64095;BME280;50353;51.420;5.682;2023-04-27T04:33:18;101780.25;;;4.08;77.88
64095;BME280;50353;51.420;5.682;2023-04-27T04:35:44;101772.06;;;4.25;77.54
64095;BME280;50353;51.420;5.682;2023-04-27T04:38:10;101780.22;;;4.10;78.03
64095;BME280;50353;51.420;5.682;2023-04-27T04:40:39;101782.47;;;4.30;77.65
64095;BME280;50353;51.420;5.682;2023-04-27T04:43:05;101779.34;;;4.11;77.78
64095;BME280;50353;51.420;5.682;2023-04-27T04:45:30;101784.41;;;4.20;78.36
64095;BME280;50353;51.420;5.682;2023-04-27T04:47:56;101798.94;;;4.36;78.26
64095;BME280;50353;51.420;5.682;2023-04-27T04:50:21;101787.31;;;4.50;77.70
64095;BME280;50353;51.420;5.682;2023-04-27T04:52:47;101789.03;;;4.51;78.01
64095;BME280;50353;51.420;5.682;2023-04-27T04:55:13;101796.31;;;4.80;77.47
64095;BME280;50353;51.420;5.682;2023-04-27T04:57:38;101793.72;;;4.80;78.30
64095;BME280;50353;51.420;5.682;2023-04-27T05:00:04;101790.22;;;4.80;77.72
64095;BME280;50353;51.420;5.682;2023-04-27T05:02:30;101796.63;;;5.08;77.10
64095;BME280;50353;51.420;5.682;2023-04-27T05:04:56;101796.31;;;5.22;76.92
64095;BME280;50353;51.420;5.682;2023-04-27T05:07:22;101794.69;;;5.17;77.17
64095;BME280;50353;51.420;5.682;2023-04-27T05:09:47;101795.13;;;5.34;76.41
64095;BME280;50353;51.420;5.682;2023-04-27T05:12:12;101797.94;;;5.27;76.74
64095;BME280;50353;51.420;5.682;2023-04-27T05:14:38;101802.78;;;5.44;77.04
64095;BME280;50353;51.420;5.682;2023-04-27T05:17:03;101805.34;;;5.47;76.61
64095;BME280;50353;51.420;5.682;2023-04-27T05:19:29;101812.50;;;5.40;77.03
64095;BME280;50353;51.420;5.682;2023-04-27T05:21:55;101804.91;;;5.65;75.84
64095;BME280;50353;51.420;5.682;2023-04-27T05:24:20;101801.41;;;5.66;75.99
64095;BME280;50353;51.420;5.682;2023-04-27T05:26:46;101805.69;;;5.70;74.93
64095;BME280;50353;51.420;5.682;2023-04-27T05:29:11;101803.13;;;5.67;75.50
64095;BME280;50353;51.420;5.682;2023-04-27T05:31:36;101805.53;;;6.46;74.09
64095;BME280;50353;51.420;5.682;2023-04-27T05:34:01;101803.53;;;6.22;73.85
64095;BME280;50353;51.420;5.682;2023-04-27T05:36:27;101808.09;;;5.80;74.91
64095;BME280;50353;51.420;5.682;2023-04-27T05:38:53;101810.00;;;5.73;76.89
64095;BME280;50353;51.420;5.682;2023-04-27T05:41:18;101806.66;;;6.02;75.39
64095;BME280;50353;51.420;5.682;2023-04-27T05:43:43;101799.78;;;6.31;74.21
64095;BME280;50353;51.420;5.682;2023-04-27T05:46:12;101798.38;;;6.51;74.62
64095;BME280;50353;51.420;5.682;2023-04-27T05:48:38;101807.81;;;6.58;74.02
64095;BME280;50353;51.420;5.682;2023-04-27T05:51:03;101813.38;;;6.79;73.17
64095;BME280;50353;51.420;5.682;2023-04-27T05:53:29;101819.50;;;6.77;73.67
64095;BME280;50353;51.420;5.682;2023-04-27T05:55:55;101819.00;;;6.96;73.49
64095;BME280;50353;51.420;5.682;2023-04-27T05:58:21;101821.41;;;7.04;72.48
64095;BME280;50353;51.420;5.682;2023-04-27T06:00:46;101820.44;;;7.36;71.32
64095;BME280;50353;51.420;5.682;2023-04-27T06:03:11;101821.16;;;7.11;71.91
64095;BME280;50353;51.420;5.682;2023-04-27T06:05:36;101819.81;;;7.83;69.86
64095;BME280;50353;51.420;5.682;2023-04-27T06:08:02;101825.34;;;8.02;69.84
64095;BME280;50353;51.420;5.682;2023-04-27T06:10:27;101823.19;;;7.60;72.19
64095;BME280;50353;51.420;5.682;2023-04-27T06:12:52;101827.47;;;7.91;69.18
64095;BME280;50353;51.420;5.682;2023-04-27T06:15:18;101827.38;;;7.94;68.10
64095;BME280;50353;51.420;5.682;2023-04-27T06:17:43;101817.72;;;8.20;67.73
64095;BME280;50353;51.420;5.682;2023-04-27T06:20:10;101822.81;;;8.51;67.60
64095;BME280;50353;51.420;5.682;2023-04-27T06:22:36;101817.22;;;8.60;67.74
64095;BME280;50353;51.420;5.682;2023-04-27T06:25:01;101823.91;;;8.19;68.28
64095;BME280;50353;51.420;5.682;2023-04-27T06:27:27;101819.56;;;8.43;68.39
64095;BME280;50353;51.420;5.682;2023-04-27T06:29:52;101811.19;;;8.80;65.83
64095;BME280;50353;51.420;5.682;2023-04-27T06:32:18;101811.50;;;8.96;65.98
64095;BME280;50353;51.420;5.682;2023-04-27T06:34:43;101816.88;;;8.93;65.79
64095;BME280;50353;51.420;5.682;2023-04-27T06:37:08;101811.00;;;9.55;65.51
64095;BME280;50353;51.420;5.682;2023-04-27T06:39:34;101813.69;;;9.31;65.43
64095;BME280;50353;51.420;5.682;2023-04-27T06:41:59;101814.25;;;10.04;62.61
64095;BME280;50353;51.420;5.682;2023-04-27T06:44:24;101816.13;;;9.80;62.23
64095;BME280;50353;51.420;5.682;2023-04-27T06:46:50;101815.41;;;9.32;63.34
64095;BME280;50353;51.420;5.682;2023-04-27T06:49:15;101814.13;;;9.42;63.97
64095;BME280;50353;51.420;5.682;2023-04-27T06:51:40;101812.06;;;9.27;64.30
64095;BME280;50353;51.420;5.682;2023-04-27T06:54:06;101807.28;;;9.81;64.69
64095;BME280;50353;51.420;5.682;2023-04-27T06:56:31;101803.44;;;9.90;63.48
64095;BME280;50353;51.420;5.682;2023-04-27T06:58:57;101805.84;;;9.94;60.66
64095;BME280;50353;51.420;5.682;2023-04-27T07:01:22;101811.97;;;10.17;62.73
64095;BME280;50353;51.420;5.682;2023-04-27T07:03:47;101810.28;;;10.95;61.16
64095;BME280;50353;51.420;5.682;2023-04-27T07:06:13;101814.50;;;10.80;58.56
64095;BME280;50353;51.420;5.682;2023-04-27T07:08:39;101818.84;;;9.56;62.16
64095;BME280;50353;51.420;5.682;2023-04-27T07:11:04;101825.25;;;9.28;63.84
64095;BME280;50353;51.420;5.682;2023-04-27T07:13:30;101809.81;;;9.62;62.90
64095;BME280;50353;51.420;5.682;2023-04-27T07:15:55;101810.31;;;10.56;60.76
64095;BME280;50353;51.420;5.682;2023-04-27T07:18:25;101808.31;;;10.61;60.57
64095;BME280;50353;51.420;5.682;2023-04-27T07:20:52;101809.97;;;9.59;62.28
64095;BME280;50353;51.420;5.682;2023-04-27T07:23:17;101801.81;;;9.86;61.79
64095;BME280;50353;51.420;5.682;2023-04-27T07:25:43;101803.44;;;10.10;61.05
64095;BME280;50353;51.420;5.682;2023-04-27T07:28:09;101801.03;;;11.04;58.51
64095;BME280;50353;51.420;5.682;2023-04-27T07:30:35;101810.41;;;10.73;59.57
64095;BME280;50353;51.420;5.682;2023-04-27T07:33:01;101809.44;;;10.95;58.46
64095;BME280;50353;51.420;5.682;2023-04-27T07:35:26;101807.47;;;11.18;59.29
64095;BME280;50353;51.420;5.682;2023-04-27T07:37:52;101808.78;;;11.09;58.08
64095;BME280;50353;51.420;5.682;2023-04-27T07:40:17;101811.97;;;10.58;60.76
64095;BME280;50353;51.420;5.682;2023-04-27T07:42:43;101803.19;;;11.15;59.97
64095;BME280;50353;51.420;5.682;2023-04-27T07:45:10;101806.47;;;11.39;56.40
64095;BME280;50353;51.420;5.682;2023-04-27T07:47:36;101807.00;;;11.65;55.68
64095;BME280;50353;51.420;5.682;2023-04-27T07:50:02;101808.84;;;11.63;54.77
64095;BME280;50353;51.420;5.682;2023-04-27T07:52:28;101804.03;;;11.89;55.00
64095;BME280;50353;51.420;5.682;2023-04-27T07:54:54;101804.97;;;11.70;56.19
64095;BME280;50353;51.420;5.682;2023-04-27T07:57:19;101797.56;;;12.13;53.72
64095;BME280;50353;51.420;5.682;2023-04-27T07:59:44;101799.00;;;11.84;54.26
64095;BME280;50353;51.420;5.682;2023-04-27T08:02:10;101803.81;;;11.76;57.25
64095;BME280;50353;51.420;5.682;2023-04-27T08:04:36;101802.69;;;11.99;53.88
64095;BME280;50353;51.420;5.682;2023-04-27T08:07:01;101793.34;;;12.09;56.10
64095;BME280;50353;51.420;5.682;2023-04-27T08:09:26;101788.91;;;12.43;53.91
64095;BME280;50353;51.420;5.682;2023-04-27T08:11:51;101800.59;;;12.06;51.41
64095;BME280;50353;51.420;5.682;2023-04-27T08:14:17;101802.38;;;12.05;53.53
64095;BME280;50353;51.420;5.682;2023-04-27T08:16:43;101795.53;;;13.17;51.33
64095;BME280;50353;51.420;5.682;2023-04-27T08:19:08;101791.28;;;12.32;52.33
64095;BME280;50353;51.420;5.682;2023-04-27T08:21:35;101792.22;;;13.46;48.70
64095;BME280;50353;51.420;5.682;2023-04-27T08:24:01;101786.81;;;12.99;51.47
64095;BME280;50353;51.420;5.682;2023-04-27T08:26:27;101797.25;;;13.02;52.31
64095;BME280;50353;51.420;5.682;2023-04-27T08:28:52;101794.28;;;13.57;50.49
64095;BME280;50353;51.420;5.682;2023-04-27T08:31:17;101799.66;;;14.16;47.59
64095;BME280;50353;51.420;5.682;2023-04-27T08:33:42;101791.44;;;13.60;48.90
64095;BME280;50353;51.420;5.682;2023-04-27T08:36:08;101793.91;;;12.99;48.28
64095;BME280;50353;51.420;5.682;2023-04-27T08:38:34;101796.00;;;13.42;47.87
64095;BME280;50353;51.420;5.682;2023-04-27T08:40:59;101783.88;;;12.88;48.13
64095;BME280;50353;51.420;5.682;2023-04-27T08:43:25;101784.25;;;13.46;47.24
64095;BME280;50353;51.420;5.682;2023-04-27T08:45:50;101765.28;;;12.88;49.03
64095;BME280;50353;51.420;5.682;2023-04-27T08:48:17;101771.56;;;13.81;47.01
64095;BME280;50353;51.420;5.682;2023-04-27T08:50:43;101762.13;;;13.45;45.89
64095;BME280;50353;51.420;5.682;2023-04-27T08:53:19;101768.19;;;13.94;48.43
64095;BME280;50353;51.420;5.682;2023-04-27T08:55:45;101762.31;;;13.42;46.56
64095;BME280;50353;51.420;5.682;2023-04-27T08:58:11;101761.09;;;14.23;44.86
64095;BME280;50353;51.420;5.682;2023-04-27T09:00:37;101773.34;;;14.11;45.06
64095;BME280;50353;51.420;5.682;2023-04-27T09:03:04;101771.97;;;13.90;45.16
64095;BME280;50353;51.420;5.682;2023-04-27T09:05:30;101766.63;;;14.20;45.07
64095;BME280;50353;51.420;5.682;2023-04-27T09:10:20;101767.31;;;14.52;43.54
64095;BME280;50353;51.420;5.682;2023-04-27T09:13:02;101768.47;;;14.63;41.42
64095;BME280;50353;51.420;5.682;2023-04-27T09:15:27;101770.88;;;13.31;43.17
64095;BME280;50353;51.420;5.682;2023-04-27T09:17:57;101778.72;;;12.36;45.65
64095;BME280;50353;51.420;5.682;2023-04-27T09:20:22;101769.50;;;13.40;43.37
64095;BME280;50353;51.420;5.682;2023-04-27T09:22:50;101764.50;;;14.11;42.38
64095;BME280;50353;51.420;5.682;2023-04-27T09:25:24;101760.19;;;14.67;40.06
64095;BME280;50353;51.420;5.682;2023-04-27T09:27:49;101773.53;;;15.09;40.31
64095;BME280;50353;51.420;5.682;2023-04-27T09:30:15;101764.03;;;13.43;40.29
64095;BME280;50353;51.420;5.682;2023-04-27T09:32:57;101768.00;;;13.97;41.37
64095;BME280;50353;51.420;5.682;2023-04-27T09:35:26;101757.75;;;14.64;43.32
64095;BME280;50353;51.420;5.682;2023-04-27T09:37:53;101767.78;;;13.85;42.32
64095;BME280;50353;51.420;5.682;2023-04-27T09:40:20;101757.31;;;14.13;41.28
64095;BME280;50353;51.420;5.682;2023-04-27T09:42:49;101753.22;;;14.50;38.90
64095;BME280;50353;51.420;5.682;2023-04-27T09:45:14;101755.16;;;13.89;40.89
64095;BME280;50353;51.420;5.682;2023-04-27T09:47:41;101748.94;;;14.19;41.10
64095;BME280;50353;51.420;5.682;2023-04-27T09:50:08;101746.22;;;14.35;40.96
64095;BME280;50353;51.420;5.682;2023-04-27T09:52:35;101749.53;;;14.53;39.67
64095;BME280;50353;51.420;5.682;2023-04-27T09:55:00;101745.31;;;15.07;40.03
64095;BME280;50353;51.420;5.682;2023-04-27T09:57:43;101738.06;;;15.36;40.82
64095;BME280;50353;51.420;5.682;2023-04-27T10:03:32;101747.53;;;14.85;39.46
64095;BME280;50353;51.420;5.682;2023-04-27T10:06:29;101745.22;;;14.94;39.42
64095;BME280;50353;51.420;5.682;2023-04-27T10:09:02;101749.09;;;15.84;40.37
64095;BME280;50353;51.420;5.682;2023-04-27T10:11:49;101735.25;;;16.31;36.50
64095;BME280;50353;51.420;5.682;2023-04-27T10:14:17;101734.00;;;16.73;38.52
64095;BME280;50353;51.420;5.682;2023-04-27T10:16:49;101727.53;;;16.26;38.27
64095;BME280;50353;51.420;5.682;2023-04-27T10:19:15;101734.63;;;16.14;35.43
64095;BME280;50353;51.420;5.682;2023-04-27T10:21:57;101740.41;;;15.13;38.24
64095;BME280;50353;51.420;5.682;2023-04-27T10:24:39;101727.22;;;16.18;35.01
64095;BME280;50353;51.420;5.682;2023-04-27T10:27:06;101740.13;;;16.11;35.69
64095;BME280;50353;51.420;5.682;2023-04-27T10:29:43;101733.16;;;15.30;37.42
64095;BME280;50353;51.420;5.682;2023-04-27T10:32:24;101736.31;;;16.02;38.08
64095;BME280;50353;51.420;5.682;2023-04-27T10:34:50;101740.25;;;15.57;34.43
64095;BME280;50353;51.420;5.682;2023-04-27T10:37:17;101746.69;;;15.67;36.34
64095;BME280;50353;51.420;5.682;2023-04-27T10:39:45;101741.66;;;15.35;36.54
64095;BME280;50353;51.420;5.682;2023-04-27T10:42:11;101742.84;;;15.71;37.37
64095;BME280;50353;51.420;5.682;2023-04-27T10:44:37;101738.66;;;15.27;35.69
64095;BME280;50353;51.420;5.682;2023-04-27T10:47:15;101732.16;;;15.58;37.54
64095;BME280;50353;51.420;5.682;2023-04-27T10:49:42;101741.31;;;14.99;35.88
64095;BME280;50353;51.420;5.682;2023-04-27T10:52:08;101735.00;;;15.82;37.88
64095;BME280;50353;51.420;5.682;2023-04-27T10:54:34;101730.22;;;15.20;36.87
64095;BME280;50353;51.420;5.682;2023-04-27T10:57:04;101732.66;;;15.91;36.64
64095;BME280;50353;51.420;5.682;2023-04-27T10:59:31;101721.13;;;16.29;35.90
64095;BME280;50353;51.420;5.682;2023-04-27T11:01:56;101716.97;;;15.99;36.14
64095;BME280;50353;51.420;5.682;2023-04-27T11:04:21;101712.41;;;16.01;39.40
64095;BME280;50353;51.420;5.682;2023-04-27T11:06:47;101714.03;;;15.50;36.16
64095;BME280;50353;51.420;5.682;2023-04-27T11:09:13;101705.91;;;15.52;37.35
64095;BME280;50353;51.420;5.682;2023-04-27T11:11:43;101704.69;;;15.30;37.17
64095;BME280;50353;51.420;5.682;2023-04-27T11:14:13;101701.47;;;15.65;37.35
64095;BME280;50353;51.420;5.682;2023-04-27T11:16:45;101687.66;;;16.12;33.60
64095;BME280;50353;51.420;5.682;2023-04-27T11:19:10;101699.38;;;15.96;36.66
64095;BME280;50353;51.420;5.682;2023-04-27T11:21:36;101691.59;;;15.40;37.51
64095;BME280;50353;51.420;5.682;2023-04-27T11:24:06;101689.16;;;15.90;36.17
64095;BME280;50353;51.420;5.682;2023-04-27T11:26:31;101681.56;;;15.03;34.07
64095;BME280;50353;51.420;5.682;2023-04-27T11:29:04;101683.88;;;14.95;37.64
64095;BME280;50353;51.420;5.682;2023-04-27T11:31:43;101691.97;;;14.94;36.72
64095;BME280;50353;51.420;5.682;2023-04-27T11:34:17;101680.50;;;15.86;36.67
64095;BME280;50353;51.420;5.682;2023-04-27T11:36:43;101691.72;;;15.38;36.43
64095;BME280;50353;51.420;5.682;2023-04-27T11:39:16;101691.38;;;15.43;34.16
64095;BME280;50353;51.420;5.682;2023-04-27T11:41:43;101679.34;;;16.03;33.58
64095;BME280;50353;51.420;5.682;2023-04-27T11:44:10;101679.72;;;17.10;35.97
64095;BME280;50353;51.420;5.682;2023-04-27T11:46:36;101667.66;;;16.80;33.78
64095;BME280;50353;51.420;5.682;2023-04-27T11:49:05;101681.44;;;17.11;35.74
64095;BME280;50353;51.420;5.682;2023-04-27T11:51:32;101674.84;;;16.17;37.26
64095;BME280;50353;51.420;5.682;2023-04-27T11:54:02;101672.16;;;17.28;35.63
64095;BME280;50353;51.420;5.682;2023-04-27T11:56:39;101665.38;;;17.82;33.20
64095;BME280;50353;51.420;5.682;2023-04-27T11:59:16;101672.03;;;17.05;31.56
64095;BME280;50353;51.420;5.682;2023-04-27T12:01:41;101666.38;;;16.49;36.65
64095;BME280;50353;51.420;5.682;2023-04-27T12:04:07;101673.97;;;15.78;36.24
64095;BME280;50353;51.420;5.682;2023-04-27T12:06:32;101662.13;;;16.20;37.78
64095;BME280;50353;51.420;5.682;2023-04-27T12:08:57;101663.47;;;16.52;35.63
64095;BME280;50353;51.420;5.682;2023-04-27T12:11:25;101672.53;;;15.99;34.58
64095;BME280;50353;51.420;5.682;2023-04-27T12:13:52;101666.75;;;15.93;35.67
64095;BME280;50353;51.420;5.682;2023-04-27T12:16:18;101661.16;;;15.70;34.37
64095;BME280;50353;51.420;5.682;2023-04-27T12:18:45;101657.75;;;16.19;34.83
64095;BME280;50353;51.420;5.682;2023-04-27T12:21:11;101660.53;;;16.31;35.34
64095;BME280;50353;51.420;5.682;2023-04-27T12:23:37;101648.41;;;17.12;33.38
64095;BME280;50353;51.420;5.682;2023-04-27T12:26:02;101651.25;;;16.23;35.22
64095;BME280;50353;51.420;5.682;2023-04-27T12:28:27;101648.63;;;17.09;33.06
64095;BME280;50353;51.420;5.682;2023-04-27T12:30:53;101650.75;;;16.18;38.64
64095;BME280;50353;51.420;5.682;2023-04-27T12:33:19;101653.19;;;16.59;34.52
64095;BME280;50353;51.420;5.682;2023-04-27T12:35:44;101645.38;;;16.31;36.49
64095;BME280;50353;51.420;5.682;2023-04-27T12:38:09;101644.63;;;16.66;37.29
64095;BME280;50353;51.420;5.682;2023-04-27T12:40:34;101647.13;;;16.81;33.83
64095;BME280;50353;51.420;5.682;2023-04-27T12:43:00;101638.47;;;16.53;35.85
64095;BME280;50353;51.420;5.682;2023-04-27T12:45:26;101639.72;;;16.60;34.89
64095;BME280;50353;51.420;5.682;2023-04-27T12:47:51;101628.94;;;16.86;33.31
64095;BME280;50353;51.420;5.682;2023-04-27T12:50:19;101639.44;;;16.89;36.51
64095;BME280;50353;51.420;5.682;2023-04-27T12:52:44;101638.31;;;17.51;35.09
64095;BME280;50353;51.420;5.682;2023-04-27T12:55:09;101637.53;;;16.78;36.07
64095;BME280;50353;51.420;5.682;2023-04-27T12:57:35;101642.78;;;17.39;35.46